METAR Data
IDs: Format: Raw Decoded Include TAF

Data at: 0903 UTC 18 Nov 2018

METAR for:EBFS (Florennes(AB), --, BX)
Text:EBFS 180825Z AUTO 05008KT 9999 BKN210/// 01/M03 Q1026 BLU
Temperature: 1.0°C ( 34°F)
Dewpoint: -3.0°C ( 27°F) [RH = 75%]
Pressure (altimeter):30.30 inches Hg (1026.0 mb)
Winds:from the NE (50 degrees) at 9 MPH (8 knots; 4.1 m/s)
Visibility:6 or more sm (10+ km)
Ceiling:21000 feet AGL
Clouds: broken clouds at 21000 feet AGL

TAF for:EBFS (Florennes(AB), --, BX)
Text:No data found